createdAt,value
2019-02-09T00:01:08.121Z,7.53
2019-02-09T00:03:36.654Z,10.97
2019-02-09T00:06:05.658Z,8.03
2019-02-09T00:08:34.015Z,8.57
2019-02-09T00:11:02.563Z,9.77
2019-02-09T00:13:31.421Z,9.40
2019-02-09T00:15:59.799Z,11.40
2019-02-09T00:18:28.183Z,5.87
2019-02-09T00:20:57.009Z,8.80
2019-02-09T00:23:25.311Z,9.70
2019-02-09T00:25:53.697Z,8.57
2019-02-09T00:28:22.437Z,7.20
2019-02-09T00:30:51.122Z,8.00
2019-02-09T00:33:19.896Z,10.67
2019-02-09T00:35:48.655Z,12.00
2019-02-09T00:38:17.127Z,8.83
2019-02-09T00:40:45.521Z,8.23
2019-02-09T00:43:14.025Z,12.40
2019-02-09T00:45:42.372Z,7.00
2019-02-09T00:48:10.740Z,9.20
2019-02-09T00:50:39.530Z,10.07
2019-02-09T00:53:07.998Z,9.13
2019-02-09T00:55:36.373Z,11.37
2019-02-09T00:58:04.970Z,10.13
2019-02-09T01:00:33.335Z,9.17
2019-02-09T01:03:01.696Z,11.70
2019-02-09T01:05:35.223Z,11.57
2019-02-09T01:08:03.805Z,8.17
2019-02-09T01:10:32.146Z,14.47
2019-02-09T01:13:00.908Z,9.60
2019-02-09T01:15:29.346Z,10.30
2019-02-09T01:17:57.725Z,12.33
2019-02-09T01:20:26.658Z,14.27
2019-02-09T01:22:55.353Z,10.00
2019-02-09T01:25:23.741Z,12.03
2019-02-09T01:27:52.708Z,11.77
2019-02-09T01:30:22.793Z,8.33
2019-02-09T01:32:51.308Z,9.77
2019-02-09T01:35:19.730Z,8.23
2019-02-09T01:37:48.186Z,13.80
2019-02-09T01:40:18.647Z,8.60
2019-02-09T01:42:47.119Z,6.23
2019-02-09T01:45:21.594Z,8.23
2019-02-09T01:47:50.137Z,10.83
2019-02-09T01:50:18.819Z,9.73
2019-02-09T01:52:47.176Z,13.20
2019-02-09T01:55:15.667Z,9.03
2019-02-09T01:57:44.301Z,9.80
2019-02-09T02:00:16.322Z,8.43
2019-02-09T02:02:44.694Z,12.03
2019-02-09T02:05:13.104Z,12.60
2019-02-09T02:07:41.560Z,13.47
2019-02-09T02:10:13.894Z,9.73
2019-02-09T02:12:42.593Z,14.03
2019-02-09T02:15:13.815Z,10.57
2019-02-09T02:17:42.255Z,9.87
2019-02-09T02:20:14.036Z,13.13
2019-02-09T02:22:42.682Z,10.10
2019-02-09T02:25:11.002Z,9.67
2019-02-09T02:27:39.530Z,9.77
2019-02-09T02:30:10.128Z,9.60
2019-02-09T02:32:38.541Z,8.70
2019-02-09T02:35:07.536Z,10.13
2019-02-09T02:37:35.901Z,7.57
2019-02-09T02:40:04.955Z,9.43
2019-02-09T02:42:33.679Z,9.90
2019-02-09T02:45:02.065Z,7.30
2019-02-09T02:47:30.363Z,10.37
2019-02-09T02:49:59.280Z,9.13
2019-02-09T02:52:27.582Z,9.23
2019-02-09T02:54:55.890Z,8.77
2019-02-09T02:57:24.716Z,10.10
2019-02-09T02:59:53.134Z,5.63
2019-02-09T03:02:21.486Z,7.20
2019-02-09T03:04:50.767Z,9.30
2019-02-09T03:07:19.140Z,8.03
2019-02-09T03:09:47.574Z,6.27
2019-02-09T03:12:16.258Z,8.57
2019-02-09T03:14:44.649Z,4.87
2019-02-09T03:17:12.989Z,8.50
2019-02-09T03:19:41.956Z,9.63
2019-02-09T03:22:10.339Z,6.17
2019-02-09T03:24:38.773Z,8.47
2019-02-09T03:27:07.573Z,10.47
2019-02-09T03:29:35.897Z,6.57
2019-02-09T03:32:04.321Z,4.93
2019-02-09T03:34:33.148Z,8.87
2019-02-09T03:37:01.487Z,5.73
2019-02-09T03:39:29.837Z,7.00
2019-02-09T03:41:58.481Z,7.53
2019-02-09T03:44:27.070Z,6.33
2019-02-09T03:46:55.594Z,7.37
2019-02-09T03:49:24.328Z,10.03
2019-02-09T03:51:52.687Z,6.10
2019-02-09T03:54:21.004Z,6.10
2019-02-09T03:56:50.271Z,5.63
2019-02-09T03:59:18.609Z,10.20
2019-02-09T04:01:46.912Z,8.80
2019-02-09T04:04:15.371Z,10.83
2019-02-09T04:06:43.701Z,8.10
2019-02-09T04:09:12.097Z,8.50
2019-02-09T04:11:40.508Z,7.80
2019-02-09T04:14:08.838Z,8.83
2019-02-09T04:16:37.147Z,6.43
2019-02-09T04:19:05.636Z,7.83
2019-02-09T04:21:34.035Z,6.60
2019-02-09T04:24:02.398Z,9.63
2019-02-09T04:26:31.256Z,7.00
2019-02-09T04:28:59.662Z,10.90
2019-02-09T04:31:27.968Z,10.33
2019-02-09T04:33:56.360Z,10.03
2019-02-09T04:36:24.726Z,8.40
2019-02-09T04:38:53.084Z,8.53
2019-02-09T04:41:21.492Z,13.57
2019-02-09T04:43:50.053Z,12.17
2019-02-09T04:46:18.371Z,5.53
2019-02-09T04:48:47.090Z,10.50
2019-02-09T04:51:15.794Z,7.43
2019-02-09T04:53:44.067Z,8.53
2019-02-09T04:56:12.482Z,7.60
2019-02-09T04:58:40.875Z,11.17
2019-02-09T05:01:14.050Z,10.73
2019-02-09T05:03:37.960Z,10.50
2019-02-09T05:06:06.362Z,7.70
2019-02-09T05:08:34.852Z,9.27
2019-02-09T05:11:03.626Z,9.43
2019-02-09T05:13:31.958Z,8.67
2019-02-09T05:16:00.344Z,12.10
2019-02-09T05:18:29.317Z,10.57
2019-02-09T05:20:57.864Z,6.90
2019-02-09T05:23:26.216Z,6.53
2019-02-09T05:25:54.912Z,11.17
2019-02-09T05:28:23.322Z,8.80
2019-02-09T05:30:51.778Z,13.27
2019-02-09T05:33:20.203Z,6.50
2019-02-09T05:35:48.732Z,11.40
2019-02-09T05:38:17.056Z,8.63
2019-02-09T05:40:45.927Z,9.93
2019-02-09T05:43:14.307Z,10.63
2019-02-09T05:45:42.748Z,11.20
2019-02-09T05:48:11.350Z,11.57
2019-02-09T05:50:39.743Z,8.70
2019-02-09T05:53:08.162Z,10.07
2019-02-09T05:55:36.808Z,7.53
2019-02-09T05:58:05.121Z,11.30
2019-02-09T06:00:36.958Z,12.17
2019-02-09T06:03:05.629Z,11.47
2019-02-09T06:05:33.980Z,9.77
2019-02-09T06:08:02.337Z,10.27
2019-02-09T06:10:30.809Z,11.93
2019-02-09T06:12:59.221Z,15.07
2019-02-09T06:15:27.715Z,16.63
2019-02-09T06:17:56.727Z,13.63
2019-02-09T06:20:25.677Z,11.63
2019-02-09T06:22:54.112Z,15.03
2019-02-09T06:25:23.054Z,17.20
2019-02-09T06:27:51.477Z,14.03
2019-02-09T06:30:22.745Z,16.23
2019-02-09T06:32:51.215Z,15.93
2019-02-09T06:35:19.683Z,12.73
2019-02-09T06:37:48.153Z,12.77
2019-02-09T06:40:16.822Z,14.97
2019-02-09T06:42:45.132Z,13.63
2019-02-09T06:45:15.659Z,14.50
2019-02-09T06:47:44.117Z,10.70
2019-02-09T06:50:15.881Z,18.07
2019-02-09T06:52:44.265Z,13.73
2019-02-09T06:55:13.815Z,15.63
2019-02-09T06:57:42.267Z,13.67
2019-02-09T07:00:13.280Z,14.67
2019-02-09T07:02:41.911Z,17.83
2019-02-09T07:05:14.255Z,17.17
2019-02-09T07:07:42.719Z,15.67
2019-02-09T07:10:12.392Z,12.30
2019-02-09T07:12:40.752Z,14.83
2019-02-09T07:15:11.311Z,14.67
2019-02-09T07:17:39.650Z,15.53
2019-02-09T07:20:08.807Z,15.83
2019-02-09T07:22:37.555Z,11.53
2019-02-09T07:25:07.392Z,14.27
2019-02-09T07:27:35.826Z,16.30
2019-02-09T07:30:06.134Z,15.67
2019-02-09T07:32:34.540Z,13.77
2019-02-09T07:35:02.896Z,17.80
2019-02-09T07:37:31.487Z,11.53
2019-02-09T07:39:59.907Z,16.87
2019-02-09T07:42:28.272Z,13.70
2019-02-09T07:44:56.934Z,13.83
2019-02-09T07:47:25.335Z,11.60
2019-02-09T07:49:53.682Z,18.03
2019-02-09T07:52:22.102Z,14.70
2019-02-09T07:54:50.485Z,13.43
2019-02-09T07:57:18.887Z,16.00
2019-02-09T07:59:47.329Z,12.97
2019-02-09T08:02:15.783Z,12.20
2019-02-09T08:04:44.350Z,14.47
2019-02-09T08:07:12.882Z,10.40
2019-02-09T08:09:41.266Z,13.13
2019-02-09T08:12:09.592Z,12.77
2019-02-09T08:14:38.103Z,9.67
2019-02-09T08:17:06.423Z,6.57
2019-02-09T08:19:34.806Z,9.63
2019-02-09T08:22:03.401Z,12.17
2019-02-09T08:24:31.716Z,11.97
2019-02-09T08:27:00.109Z,14.17
2019-02-09T08:29:28.714Z,12.77
2019-02-09T08:31:57.160Z,7.27
2019-02-09T08:34:25.540Z,12.30
2019-02-09T08:36:54.229Z,10.57
2019-02-09T08:39:22.751Z,14.60
2019-02-09T08:41:58.102Z,8.03
2019-02-09T08:44:26.730Z,7.13
2019-02-09T08:46:55.117Z,15.10
2019-02-09T08:49:23.518Z,12.50
2019-02-09T08:51:51.934Z,16.13
2019-02-09T08:54:20.280Z,7.73
2019-02-09T08:56:48.925Z,13.07
2019-02-09T08:59:17.264Z,10.17
2019-02-09T09:01:45.653Z,9.97
2019-02-09T09:04:14.262Z,8.77
2019-02-09T09:06:42.737Z,9.17
2019-02-09T09:09:11.482Z,7.53
2019-02-09T09:11:40.292Z,10.00
2019-02-09T09:14:08.723Z,10.20
2019-02-09T09:16:37.013Z,10.80
2019-02-09T09:19:05.710Z,10.67
2019-02-09T09:21:34.233Z,9.67
2019-02-09T09:24:02.592Z,8.47
2019-02-09T09:26:31.158Z,6.73
2019-02-09T09:28:59.705Z,8.23
2019-02-09T09:31:28.067Z,9.37
2019-02-09T09:33:56.630Z,10.53
2019-02-09T09:36:24.958Z,11.50
2019-02-09T09:38:53.313Z,8.73
2019-02-09T09:41:22.048Z,10.17
2019-02-09T09:43:50.521Z,12.23
2019-02-09T09:46:18.931Z,12.67
2019-02-09T09:48:47.775Z,7.10
2019-02-09T09:51:16.263Z,11.50
2019-02-09T09:53:44.684Z,11.23
2019-02-09T09:56:14.321Z,11.30
2019-02-09T09:58:41.617Z,12.97
2019-02-09T10:01:09.981Z,9.40
2019-02-09T10:03:38.553Z,12.67
2019-02-09T10:06:07.120Z,10.33
2019-02-09T10:08:35.615Z,9.77
2019-02-09T10:11:04.700Z,10.83
2019-02-09T10:13:32.984Z,15.70
2019-02-09T10:16:01.326Z,8.00
2019-02-09T10:18:29.813Z,13.70
2019-02-09T10:20:58.212Z,8.20
2019-02-09T10:23:26.542Z,10.50
2019-02-09T10:25:55.267Z,7.63
2019-02-09T10:28:24.682Z,7.20
2019-02-09T10:30:53.147Z,15.57
2019-02-09T10:33:21.700Z,12.73
2019-02-09T10:35:50.421Z,9.50
2019-02-09T10:38:18.768Z,9.03
2019-02-09T10:40:47.203Z,13.63
2019-02-09T10:43:15.616Z,11.13
2019-02-09T10:45:46.434Z,9.20
2019-02-09T10:48:14.889Z,11.07
2019-02-09T10:50:44.795Z,6.30
2019-02-09T10:53:13.149Z,10.10
2019-02-09T10:55:42.103Z,8.67
2019-02-09T10:58:10.682Z,8.50
2019-02-09T11:00:42.725Z,9.57
2019-02-09T11:03:11.081Z,8.53
2019-02-09T11:05:39.432Z,11.40
2019-02-09T11:08:07.929Z,11.97
2019-02-09T11:10:36.303Z,12.17
2019-02-09T11:13:04.918Z,13.73
2019-02-09T11:15:33.605Z,10.73
2019-02-09T11:18:01.980Z,8.67
2019-02-09T11:20:30.376Z,10.20
2019-02-09T11:22:59.020Z,12.37
2019-02-09T11:25:27.380Z,15.47
2019-02-09T11:27:55.727Z,10.00
2019-02-09T11:30:26.640Z,11.43
2019-02-09T11:33:00.792Z,11.17
2019-02-09T11:35:25.299Z,10.50
2019-02-09T11:37:53.764Z,10.53
2019-02-09T11:40:22.273Z,13.53
2019-02-09T11:42:50.844Z,10.47
2019-02-09T11:45:22.749Z,8.33
2019-02-09T11:47:51.142Z,6.83
2019-02-09T11:50:19.612Z,9.73
2019-02-09T11:52:48.274Z,10.70
2019-02-09T11:55:17.142Z,11.10
2019-02-09T11:57:45.675Z,8.83
2019-02-09T12:00:17.609Z,10.57
2019-02-09T12:02:46.080Z,6.27
2019-02-09T12:05:14.463Z,10.63
2019-02-09T12:07:42.980Z,10.03
2019-02-09T12:10:11.504Z,12.17
2019-02-09T12:12:39.844Z,7.53
2019-02-09T12:15:11.086Z,7.70
2019-02-09T12:17:39.402Z,12.27
2019-02-09T12:20:10.154Z,10.23
2019-02-09T12:22:38.973Z,13.03
2019-02-09T12:25:08.938Z,8.87
2019-02-09T12:27:37.519Z,11.30
2019-02-09T12:30:08.570Z,13.23
2019-02-09T12:32:36.886Z,8.90
2019-02-09T12:35:05.939Z,10.77
2019-02-09T12:37:34.940Z,8.90
2019-02-09T12:40:03.375Z,10.93
2019-02-09T12:42:31.959Z,12.23
2019-02-09T12:45:00.824Z,11.40
2019-02-09T12:47:29.155Z,10.13
2019-02-09T12:49:57.546Z,10.93
2019-02-09T12:52:26.153Z,13.80
2019-02-09T12:54:54.518Z,11.37
2019-02-09T12:57:22.980Z,8.93
2019-02-09T12:59:51.480Z,8.00
2019-02-09T13:02:19.922Z,8.80
2019-02-09T13:04:48.242Z,11.43
2019-02-09T13:07:16.685Z,11.57
2019-02-09T13:09:45.163Z,11.27
2019-02-09T13:12:13.537Z,8.30
2019-02-09T13:14:41.969Z,9.67
2019-02-09T13:17:10.304Z,5.70
2019-02-09T13:19:38.615Z,9.03
2019-02-09T13:22:07.098Z,9.63
2019-02-09T13:24:35.454Z,10.10
2019-02-09T13:27:03.880Z,8.43
2019-02-09T13:29:32.291Z,9.10
2019-02-09T13:32:00.638Z,6.37
2019-02-09T13:34:29.274Z,9.03
2019-02-09T13:36:57.631Z,5.60
2019-02-09T13:39:25.969Z,8.47
2019-02-09T13:41:54.363Z,5.93
2019-02-09T13:44:22.976Z,8.00
2019-02-09T13:46:51.529Z,6.97
2019-02-09T13:49:19.870Z,6.40
2019-02-09T13:51:48.539Z,5.57
2019-02-09T13:54:16.878Z,3.60
2019-02-09T13:56:45.229Z,4.50
2019-02-09T13:59:13.995Z,6.97
2019-02-09T14:01:42.351Z,8.90
2019-02-09T14:04:10.695Z,7.33
2019-02-09T14:06:39.435Z,5.90
2019-02-09T14:09:08.084Z,7.00
2019-02-09T14:11:36.496Z,5.63
2019-02-09T14:14:05.361Z,7.80
2019-02-09T14:16:38.599Z,5.63
2019-02-09T14:19:02.065Z,4.40
2019-02-09T14:21:30.764Z,5.60
2019-02-09T14:23:59.085Z,7.27
2019-02-09T14:26:27.387Z,7.53
2019-02-09T14:28:56.365Z,6.73
2019-02-09T14:31:24.744Z,7.30
2019-02-09T14:33:55.243Z,6.53
2019-02-09T14:36:21.638Z,6.37
2019-02-09T14:38:49.974Z,6.30
2019-02-09T14:41:18.304Z,7.43
2019-02-09T14:43:46.857Z,6.77
2019-02-09T14:46:15.199Z,4.83
2019-02-09T14:48:43.610Z,6.77
2019-02-09T14:51:12.378Z,8.97
2019-02-09T14:53:40.715Z,7.33
2019-02-09T14:56:09.011Z,7.93
2019-02-09T14:58:37.528Z,8.27
2019-02-09T15:01:06.136Z,9.07
2019-02-09T15:03:34.461Z,8.13
2019-02-09T15:06:02.951Z,8.53
2019-02-09T15:08:31.330Z,5.97
2019-02-09T15:10:59.694Z,9.27
2019-02-09T15:13:28.157Z,9.37
2019-02-09T15:16:35.023Z,8.03
2019-02-09T15:19:03.502Z,8.23
2019-02-09T15:21:31.842Z,9.60
2019-02-09T15:24:00.243Z,8.30
2019-02-09T15:26:28.704Z,10.60
2019-02-09T15:28:57.016Z,10.37
2019-02-09T15:31:25.355Z,10.73
2019-02-09T15:33:53.877Z,11.10
2019-02-09T15:36:22.258Z,10.27
2019-02-09T15:38:50.670Z,12.53
2019-02-09T15:41:19.424Z,12.57
2019-02-09T15:43:47.791Z,10.97
2019-02-09T15:46:16.192Z,11.63
2019-02-09T15:48:45.001Z,11.80
2019-02-09T15:51:13.373Z,7.43
2019-02-09T15:53:41.854Z,11.17
2019-02-09T15:56:10.429Z,9.60
2019-02-09T15:58:38.723Z,11.27
2019-02-09T16:01:07.246Z,8.77
2019-02-09T16:03:36.072Z,9.97
2019-02-09T16:06:04.569Z,10.20
2019-02-09T16:08:32.971Z,9.60
2019-02-09T16:11:01.938Z,9.60
2019-02-09T16:13:30.265Z,10.83
2019-02-09T16:15:58.622Z,9.70
2019-02-09T16:18:27.254Z,9.93
2019-02-09T16:20:55.608Z,10.00
2019-02-09T16:23:23.956Z,10.80
2019-02-09T16:25:52.802Z,6.70
2019-02-09T16:28:21.117Z,7.83
2019-02-09T16:30:49.512Z,7.00
2019-02-09T16:33:17.946Z,7.80
2019-02-09T16:35:46.384Z,9.10
2019-02-09T16:38:14.794Z,7.90
2019-02-09T16:40:43.571Z,7.60
2019-02-09T16:43:12.147Z,8.87
2019-02-09T16:45:40.650Z,9.43
2019-02-09T16:48:09.442Z,8.33
2019-02-09T16:50:37.867Z,7.47
2019-02-09T16:53:06.501Z,8.73
2019-02-09T16:55:35.498Z,8.53
2019-02-09T16:58:03.871Z,8.97
2019-02-09T17:00:35.422Z,7.57
2019-02-09T17:03:04.244Z,7.97
2019-02-09T17:05:32.639Z,7.07
2019-02-09T17:08:00.911Z,7.90
2019-02-09T17:10:29.366Z,8.27
2019-02-09T17:12:57.709Z,9.33
2019-02-09T17:15:26.087Z,7.50
2019-02-09T17:17:55.068Z,8.47
2019-02-09T17:20:23.573Z,9.40
2019-02-09T17:22:52.211Z,8.27
2019-02-09T17:25:21.111Z,8.37
2019-02-09T17:27:49.628Z,7.67
2019-02-09T17:30:21.387Z,6.13
2019-02-09T17:32:49.707Z,6.80
2019-02-09T17:35:18.132Z,5.43
2019-02-09T17:37:46.690Z,8.37
2019-02-09T17:40:17.232Z,7.67
2019-02-09T17:42:53.141Z,8.57
2019-02-09T17:45:18.199Z,6.53
2019-02-09T17:47:47.816Z,7.37
2019-02-09T17:50:15.103Z,8.10
2019-02-09T17:52:43.521Z,7.30
2019-02-09T17:55:13.835Z,8.17
2019-02-09T17:57:42.171Z,9.00
2019-02-09T18:00:15.203Z,8.40
2019-02-09T18:02:43.616Z,7.80
2019-02-09T18:05:12.114Z,7.83
2019-02-09T18:07:40.856Z,7.73
2019-02-09T18:10:11.453Z,7.67
2019-02-09T18:12:39.776Z,7.40
2019-02-09T18:15:09.249Z,7.67
2019-02-09T18:17:37.658Z,9.63
2019-02-09T18:20:06.199Z,8.07
2019-02-09T18:22:34.987Z,6.23
2019-02-09T18:25:03.508Z,7.77
2019-02-09T18:27:31.861Z,7.03
2019-02-09T18:30:00.568Z,6.97
2019-02-09T18:32:29.171Z,6.30
2019-02-09T18:34:57.498Z,6.57
2019-02-09T18:37:26.009Z,5.97
2019-02-09T18:39:54.424Z,8.40
2019-02-09T18:42:22.742Z,6.53
2019-02-09T18:44:51.450Z,6.40
2019-02-09T18:47:19.828Z,5.17
2019-02-09T18:49:48.190Z,6.63
2019-02-09T18:52:17.196Z,6.47
2019-02-09T18:54:46.428Z,5.40
2019-02-09T18:57:14.873Z,5.97
2019-02-09T18:59:43.558Z,4.07
2019-02-09T19:02:12.209Z,6.17
2019-02-09T19:04:40.540Z,4.10
2019-02-09T19:07:09.178Z,2.93
2019-02-09T19:09:37.529Z,6.23
2019-02-09T19:12:05.906Z,5.53
2019-02-09T19:14:34.757Z,6.00
2019-02-09T19:17:03.165Z,4.67
2019-02-09T19:19:31.499Z,5.77
2019-02-09T19:21:59.962Z,5.20
2019-02-09T19:24:28.412Z,7.10
2019-02-09T19:26:56.783Z,6.90
2019-02-09T19:29:25.481Z,6.67
2019-02-09T19:31:53.908Z,7.87
2019-02-09T19:34:22.286Z,6.73
2019-02-09T19:36:50.753Z,6.83
2019-02-09T19:39:19.193Z,6.67
2019-02-09T19:41:47.559Z,6.60
2019-02-09T19:44:15.920Z,5.53
2019-02-09T19:46:44.316Z,5.83
2019-02-09T19:49:12.953Z,5.37
2019-02-09T19:51:41.517Z,6.50
2019-02-09T19:54:10.207Z,6.17
2019-02-09T19:56:38.627Z,6.10
2019-02-09T19:59:07.077Z,6.17
2019-02-09T20:01:35.454Z,6.40
2019-02-09T20:04:03.794Z,4.60
2019-02-09T20:06:33.134Z,6.20
2019-02-09T20:09:01.535Z,4.97
2019-02-09T20:11:29.847Z,6.13
2019-02-09T20:13:58.571Z,7.03
2019-02-09T20:16:26.903Z,5.60
2019-02-09T20:18:55.243Z,5.60
2019-02-09T20:21:23.827Z,6.27
2019-02-09T20:23:52.127Z,6.43
2019-02-09T20:26:20.481Z,6.60
2019-02-09T20:28:48.960Z,7.00
2019-02-09T20:31:17.297Z,5.23
2019-02-09T20:33:45.673Z,5.57
2019-02-09T20:36:14.118Z,6.33
2019-02-09T20:38:42.535Z,3.50
2019-02-09T20:41:11.097Z,6.20
2019-02-09T20:43:39.892Z,5.57
2019-02-09T20:46:08.272Z,5.80
2019-02-09T20:48:36.644Z,6.60
2019-02-09T20:51:05.210Z,5.27
2019-02-09T20:53:33.696Z,4.83
2019-02-09T20:56:02.220Z,6.60
2019-02-09T20:58:30.704Z,5.80
2019-02-09T21:00:59.287Z,3.97
2019-02-09T21:03:27.620Z,5.63
2019-02-09T21:05:56.177Z,5.30
2019-02-09T21:08:24.668Z,4.10
2019-02-09T21:10:52.975Z,6.03
2019-02-09T21:13:21.524Z,5.97
2019-02-09T21:15:49.974Z,5.50
2019-02-09T21:18:18.303Z,5.57
2019-02-09T21:20:47.081Z,5.00
2019-02-09T21:23:15.446Z,6.07
2019-02-09T21:25:44.152Z,4.57
2019-02-09T21:28:12.670Z,5.10
2019-02-09T21:30:41.046Z,5.97
2019-02-09T21:33:09.363Z,3.77
2019-02-09T21:35:43.756Z,4.47
2019-02-09T21:38:06.352Z,4.77
2019-02-09T21:40:34.741Z,5.87
2019-02-09T21:43:03.416Z,3.97
2019-02-09T21:45:31.816Z,5.63
2019-02-09T21:48:00.192Z,4.87
2019-02-09T21:50:31.738Z,6.83
2019-02-09T21:53:00.152Z,6.17
2019-02-09T21:55:28.484Z,5.67
2019-02-09T21:57:57.361Z,4.57
2019-02-09T22:00:28.756Z,3.40
2019-02-09T22:02:57.145Z,4.70
2019-02-09T22:05:25.719Z,4.57
2019-02-09T22:07:54.016Z,4.50
2019-02-09T22:10:29.194Z,4.53
2019-02-09T22:12:52.564Z,5.20
2019-02-09T22:15:21.872Z,5.63
2019-02-09T22:17:50.228Z,5.17
2019-02-09T22:20:18.905Z,4.80
2019-02-09T22:22:47.373Z,3.57
2019-02-09T22:25:17.432Z,4.63
2019-02-09T22:27:46.626Z,4.33
2019-02-09T22:30:17.466Z,3.33
2019-02-09T22:32:45.950Z,2.30
2019-02-09T22:35:14.523Z,4.40
2019-02-09T22:37:43.172Z,2.43
2019-02-09T22:40:15.342Z,3.83
2019-02-09T22:42:43.791Z,5.77
2019-02-09T22:45:12.334Z,2.97
2019-02-09T22:47:41.193Z,4.20
2019-02-09T22:50:18.962Z,4.63
2019-02-09T22:52:42.382Z,3.60
2019-02-09T22:55:11.662Z,5.00
2019-02-09T22:57:39.982Z,4.47
2019-02-09T23:00:52.605Z,1.53
2019-02-09T23:03:23.758Z,3.07
2019-02-09T23:07:04.893Z,4.27
2019-02-09T23:09:33.736Z,3.77
2019-02-09T23:12:02.117Z,4.20
2019-02-09T23:14:30.747Z,4.23
2019-02-09T23:16:59.103Z,4.07
2019-02-09T23:19:27.451Z,3.87
2019-02-09T23:21:55.849Z,3.90
2019-02-09T23:24:24.161Z,4.93
2019-02-09T23:26:52.563Z,2.67
2019-02-09T23:29:21.187Z,3.90
2019-02-09T23:31:49.636Z,3.60
2019-02-09T23:34:17.970Z,3.90
2019-02-09T23:36:46.451Z,4.73
2019-02-09T23:39:15.204Z,5.07
2019-02-09T23:41:43.604Z,3.90
2019-02-09T23:44:12.088Z,2.70
2019-02-09T23:46:40.470Z,2.73
2019-02-09T23:49:08.916Z,4.93
2019-02-09T23:51:37.491Z,2.77
2019-02-09T23:54:06.029Z,3.63
2019-02-09T23:56:34.361Z,4.37
2019-02-09T23:59:03.088Z,3.23
